Lowest pressure

Not for real navigation. The accuracy of this data is not assured See disclaimer for more information



ICAO NAME COUNTRY WIND Kt GUST Kt VIS m TEMP/DEW C BARO METAR
PAPB ST. GEORGE AIRPORT AK United States 22 27 16000 -1/-3 28.75 PAPB 191016Z AUTO 16022G27KT 10SM FEW016 BKN038 OVC048 M01/M03 A2875 RMK AO2 PK WND 17029/0957 T1011
PASN ST PAUL ISLAND AIRPORT AK United States 9 0 14400 -1/-2 28.80 PASN 190953Z 12009KT 9SM BKN035 OVC046 M01/M02 A2880 RMK AO2 SLP752 T10111022 $
PAJN JUNEAU INTERNATIONAL AIRPORT AK United States 9 0 9600 3/2 28.81 PAJN 190953Z 10009KT 6SM -RA BR FEW009 OVC032 03/02 A2881 RMK AO2 SNE52 SLP756 P0004 T00330022
PAGN Angoon AK United States 5 0 16000 6/3 28.82 PAGN 190956Z AUTO 10005KT 10SM FEW030 SCT035 OVC043 06/03 A2882 RMK AO2 SLP749 T00560033
PAOH Hoonah, Hoonah Seaplane Base AK United States 4 0 12800 1/0 28.84 PAOH 191028Z AUTO 12004KT 8SM -SN SCT011 OVC021 01/00 A2884 RMK AO2 P0002 FZRANO

Show more